sensor_id;sensor_type;location;lat;lon;timestamp;temperature;humidity
47765;DHT22;33529;49.242;8.670;2022-11-27T00:01:20;2.90;99.90
47765;DHT22;33529;49.242;8.670;2022-11-27T00:03:48;3.00;99.90
47765;DHT22;33529;49.242;8.670;2022-11-27T00:06:18;3.00;99.90
47765;DHT22;33529;49.242;8.670;2022-11-27T00:08:45;3.00;99.90
47765;DHT22;33529;49.242;8.670;2022-11-27T00:11:17;3.00;99.90
47765;DHT22;33529;49.242;8.670;2022-11-27T00:13:45;3.00;99.90
47765;DHT22;33529;49.242;8.670;2022-11-27T00:16:13;3.00;99.90
47765;DHT22;33529;49.242;8.670;2022-11-27T00:18:40;3.00;99.90
47765;DHT22;33529;49.242;8.670;2022-11-27T00:21:14;3.00;99.90
47765;DHT22;33529;49.242;8.670;2022-11-27T00:23:42;3.00;99.90
47765;DHT22;33529;49.242;8.670;2022-11-27T00:26:09;3.00;99.90
47765;DHT22;33529;49.242;8.670;2022-11-27T00:28:37;2.90;99.90
47765;DHT22;33529;49.242;8.670;2022-11-27T00:31:13;3.00;99.90
47765;DHT22;33529;49.242;8.670;2022-11-27T00:33:40;3.00;99.90
47765;DHT22;33529;49.242;8.670;2022-11-27T00:36:08;3.00;99.90
47765;DHT22;33529;49.242;8.670;2022-11-27T00:38:35;3.00;99.90
47765;DHT22;33529;49.242;8.670;2022-11-27T00:43:34;2.90;99.90
47765;DHT22;33529;49.242;8.670;2022-11-27T00:46:12;3.00;99.90
47765;DHT22;33529;49.242;8.670;2022-11-27T00:48:39;3.00;99.90
47765;DHT22;33529;49.242;8.670;2022-11-27T00:51:08;3.00;99.90
47765;DHT22;33529;49.242;8.670;2022-11-27T00:53:36;3.00;99.90
47765;DHT22;33529;49.242;8.670;2022-11-27T00:56:03;3.00;99.90
47765;DHT22;33529;49.242;8.670;2022-11-27T00:58:31;2.90;99.90
47765;DHT22;33529;49.242;8.670;2022-11-27T01:00:59;2.90;99.90
47765;DHT22;33529;49.242;8.670;2022-11-27T01:03:28;2.90;99.90
47765;DHT22;33529;49.242;8.670;2022-11-27T01:05:59;2.90;99.90
47765;DHT22;33529;49.242;8.670;2022-11-27T01:08:27;2.80;99.90
47765;DHT22;33529;49.242;8.670;2022-11-27T01:10:56;2.80;99.90
47765;DHT22;33529;49.242;8.670;2022-11-27T01:13:29;2.70;99.90
47765;DHT22;33529;49.242;8.670;2022-11-27T01:16:10;2.70;99.90
47765;DHT22;33529;49.242;8.670;2022-11-27T01:18:39;2.70;99.90
47765;DHT22;33529;49.242;8.670;2022-11-27T01:21:08;2.70;99.90
47765;DHT22;33529;49.242;8.670;2022-11-27T01:23:35;2.70;99.90
47765;DHT22;33529;49.242;8.670;2022-11-27T01:26:05;2.70;99.90
47765;DHT22;33529;49.242;8.670;2022-11-27T01:28:32;2.70;99.90
47765;DHT22;33529;49.242;8.670;2022-11-27T01:31:14;2.70;99.90
47765;DHT22;33529;49.242;8.670;2022-11-27T01:33:43;2.70;99.90
47765;DHT22;33529;49.242;8.670;2022-11-27T01:36:12;2.60;99.90
47765;DHT22;33529;49.242;8.670;2022-11-27T01:38:40;2.60;99.90
47765;DHT22;33529;49.242;8.670;2022-11-27T01:41:29;2.60;99.90
47765;DHT22;33529;49.242;8.670;2022-11-27T01:44:02;2.50;99.90
47765;DHT22;33529;49.242;8.670;2022-11-27T01:46:37;2.50;99.90
47765;DHT22;33529;49.242;8.670;2022-11-27T01:51:51;2.50;99.90
47765;DHT22;33529;49.242;8.670;2022-11-27T01:54:20;2.40;99.90
47765;DHT22;33529;49.242;8.670;2022-11-27T01:56:53;2.40;99.90
47765;DHT22;33529;49.242;8.670;2022-11-27T01:59:23;2.40;99.90
47765;DHT22;33529;49.242;8.670;2022-11-27T02:01:50;2.40;99.90
47765;DHT22;33529;49.242;8.670;2022-11-27T02:04:18;2.40;99.90
47765;DHT22;33529;49.242;8.670;2022-11-27T02:06:45;2.40;99.90
47765;DHT22;33529;49.242;8.670;2022-11-27T02:09:12;2.30;99.90
47765;DHT22;33529;49.242;8.670;2022-11-27T02:11:54;2.30;99.90
47765;DHT22;33529;49.242;8.670;2022-11-27T02:14:36;2.30;99.90
47765;DHT22;33529;49.242;8.670;2022-11-27T02:17:16;2.30;99.90
47765;DHT22;33529;49.242;8.670;2022-11-27T02:25:07;2.40;99.90
47765;DHT22;33529;49.242;8.670;2022-11-27T02:30:22;2.30;99.90
47765;DHT22;33529;49.242;8.670;2022-11-27T02:32:56;2.20;99.90
47765;DHT22;33529;49.242;8.670;2022-11-27T02:40:52;2.30;99.90
47765;DHT22;33529;49.242;8.670;2022-11-27T02:43:29;2.30;99.90
47765;DHT22;33529;49.242;8.670;2022-11-27T02:45:59;2.20;99.90
47765;DHT22;33529;49.242;8.670;2022-11-27T02:48:32;2.20;99.90
47765;DHT22;33529;49.242;8.670;2022-11-27T02:51:03;2.20;99.90
47765;DHT22;33529;49.242;8.670;2022-11-27T02:53:36;2.20;99.90
47765;DHT22;33529;49.242;8.670;2022-11-27T02:56:10;2.20;99.90
47765;DHT22;33529;49.242;8.670;2022-11-27T02:58:40;2.10;99.90
47765;DHT22;33529;49.242;8.670;2022-11-27T03:01:09;2.10;99.90
47765;DHT22;33529;49.242;8.670;2022-11-27T03:03:43;2.10;99.90
47765;DHT22;33529;49.242;8.670;2022-11-27T03:06:18;2.00;99.90
47765;DHT22;33529;49.242;8.670;2022-11-27T03:08:56;2.00;99.90
47765;DHT22;33529;49.242;8.670;2022-11-27T03:11:25;1.90;99.90
47765;DHT22;33529;49.242;8.670;2022-11-27T03:13:54;1.90;99.90
47765;DHT22;33529;49.242;8.670;2022-11-27T03:16:38;1.80;99.90
47765;DHT22;33529;49.242;8.670;2022-11-27T03:21:52;1.80;99.90
47765;DHT22;33529;49.242;8.670;2022-11-27T03:24:19;1.70;99.90
47765;DHT22;33529;49.242;8.670;2022-11-27T03:26:47;1.70;99.90
47765;DHT22;33529;49.242;8.670;2022-11-27T03:29:38;1.60;99.90
47765;DHT22;33529;49.242;8.670;2022-11-27T03:32:05;1.60;99.90
47765;DHT22;33529;49.242;8.670;2022-11-27T03:34:33;1.60;99.90
47765;DHT22;33529;49.242;8.670;2022-11-27T03:37:10;1.50;99.90
47765;DHT22;33529;49.242;8.670;2022-11-27T03:39:37;1.50;99.90
47765;DHT22;33529;49.242;8.670;2022-11-27T03:42:21;1.50;99.90
47765;DHT22;33529;49.242;8.670;2022-11-27T03:45:21;1.50;99.90
47765;DHT22;33529;49.242;8.670;2022-11-27T03:50:43;1.70;99.90
47765;DHT22;33529;49.242;8.670;2022-11-27T03:56:12;1.90;99.90
47765;DHT22;33529;49.242;8.670;2022-11-27T03:59:24;1.70;99.90
47765;DHT22;33529;49.242;8.670;2022-11-27T04:01:54;1.80;99.90
47765;DHT22;33529;49.242;8.670;2022-11-27T04:04:21;1.80;99.90
47765;DHT22;33529;49.242;8.670;2022-11-27T04:06:48;1.80;99.90
47765;DHT22;33529;49.242;8.670;2022-11-27T04:09:15;1.80;99.90
47765;DHT22;33529;49.242;8.670;2022-11-27T04:11:42;1.70;99.90
47765;DHT22;33529;49.242;8.670;2022-11-27T04:14:09;1.70;99.90
47765;DHT22;33529;49.242;8.670;2022-11-27T04:16:36;1.60;99.90
47765;DHT22;33529;49.242;8.670;2022-11-27T04:19:03;1.60;99.90
47765;DHT22;33529;49.242;8.670;2022-11-27T04:21:30;1.50;99.90
47765;DHT22;33529;49.242;8.670;2022-11-27T04:23:57;1.50;99.90
47765;DHT22;33529;49.242;8.670;2022-11-27T04:26:24;1.40;99.90
47765;DHT22;33529;49.242;8.670;2022-11-27T04:28:51;1.40;99.90
47765;DHT22;33529;49.242;8.670;2022-11-27T04:31:18;1.30;99.90
47765;DHT22;33529;49.242;8.670;2022-11-27T04:33:45;1.20;99.90
47765;DHT22;33529;49.242;8.670;2022-11-27T04:36:12;1.20;99.90
47765;DHT22;33529;49.242;8.670;2022-11-27T04:38:39;1.20;99.90
47765;DHT22;33529;49.242;8.670;2022-11-27T04:41:06;1.30;99.90
47765;DHT22;33529;49.242;8.670;2022-11-27T04:43:33;1.20;99.90
47765;DHT22;33529;49.242;8.670;2022-11-27T04:46:00;1.00;99.90
47765;DHT22;33529;49.242;8.670;2022-11-27T04:48:30;1.00;99.90
47765;DHT22;33529;49.242;8.670;2022-11-27T04:50:57;1.10;99.90
47765;DHT22;33529;49.242;8.670;2022-11-27T04:53:24;1.00;99.90
47765;DHT22;33529;49.242;8.670;2022-11-27T04:55:51;1.00;99.90
47765;DHT22;33529;49.242;8.670;2022-11-27T04:58:18;0.80;99.90
47765;DHT22;33529;49.242;8.670;2022-11-27T05:00:45;0.80;99.90
47765;DHT22;33529;49.242;8.670;2022-11-27T05:03:12;0.70;99.90
47765;DHT22;33529;49.242;8.670;2022-11-27T05:05:39;0.60;99.90
47765;DHT22;33529;49.242;8.670;2022-11-27T05:08:06;0.70;99.90
47765;DHT22;33529;49.242;8.670;2022-11-27T05:10:33;0.80;99.90
47765;DHT22;33529;49.242;8.670;2022-11-27T05:12:59;0.90;99.90
47765;DHT22;33529;49.242;8.670;2022-11-27T05:15:26;0.90;99.90
47765;DHT22;33529;49.242;8.670;2022-11-27T05:17:53;1.00;99.90
47765;DHT22;33529;49.242;8.670;2022-11-27T05:20:20;1.00;99.90
47765;DHT22;33529;49.242;8.670;2022-11-27T05:22:47;1.00;99.90
47765;DHT22;33529;49.242;8.670;2022-11-27T05:25:15;1.00;99.90
47765;DHT22;33529;49.242;8.670;2022-11-27T05:27:42;1.00;99.90
47765;DHT22;33529;49.242;8.670;2022-11-27T05:30:09;0.90;99.90
47765;DHT22;33529;49.242;8.670;2022-11-27T05:32:36;0.90;99.90
47765;DHT22;33529;49.242;8.670;2022-11-27T05:35:04;1.00;99.90
47765;DHT22;33529;49.242;8.670;2022-11-27T05:37:31;1.10;99.90
47765;DHT22;33529;49.242;8.670;2022-11-27T05:39:58;1.00;99.90
47765;DHT22;33529;49.242;8.670;2022-11-27T05:42:24;0.90;99.90
47765;DHT22;33529;49.242;8.670;2022-11-27T05:44:51;0.80;99.90
47765;DHT22;33529;49.242;8.670;2022-11-27T05:47:24;0.80;99.90
47765;DHT22;33529;49.242;8.670;2022-11-27T05:49:51;0.70;99.90
47765;DHT22;33529;49.242;8.670;2022-11-27T05:52:18;0.70;99.90
47765;DHT22;33529;49.242;8.670;2022-11-27T05:54:45;0.70;99.90
47765;DHT22;33529;49.242;8.670;2022-11-27T05:57:12;0.60;99.90
47765;DHT22;33529;49.242;8.670;2022-11-27T05:59:39;0.50;99.90
47765;DHT22;33529;49.242;8.670;2022-11-27T06:02:06;0.40;99.90
47765;DHT22;33529;49.242;8.670;2022-11-27T06:04:33;0.40;99.90
47765;DHT22;33529;49.242;8.670;2022-11-27T06:07:00;0.30;99.90
47765;DHT22;33529;49.242;8.670;2022-11-27T06:09:27;0.40;99.90
47765;DHT22;33529;49.242;8.670;2022-11-27T06:11:54;0.40;99.90
47765;DHT22;33529;49.242;8.670;2022-11-27T06:14:22;0.60;99.90
47765;DHT22;33529;49.242;8.670;2022-11-27T06:16:49;0.60;99.90
47765;DHT22;33529;49.242;8.670;2022-11-27T06:19:18;0.70;99.90
47765;DHT22;33529;49.242;8.670;2022-11-27T06:21:45;0.70;99.90
47765;DHT22;33529;49.242;8.670;2022-11-27T06:24:13;0.80;99.90
47765;DHT22;33529;49.242;8.670;2022-11-27T06:26:40;0.80;99.90
47765;DHT22;33529;49.242;8.670;2022-11-27T06:29:08;0.80;99.90
47765;DHT22;33529;49.242;8.670;2022-11-27T06:31:35;0.70;99.90
47765;DHT22;33529;49.242;8.670;2022-11-27T06:34:03;0.70;99.90
47765;DHT22;33529;49.242;8.670;2022-11-27T06:36:35;0.60;99.90
47765;DHT22;33529;49.242;8.670;2022-11-27T06:39:04;0.60;99.90
47765;DHT22;33529;49.242;8.670;2022-11-27T06:41:31;0.70;99.90
47765;DHT22;33529;49.242;8.670;2022-11-27T06:43:59;0.70;99.90
47765;DHT22;33529;49.242;8.670;2022-11-27T06:46:27;0.80;99.90
47765;DHT22;33529;49.242;8.670;2022-11-27T06:48:56;0.80;99.90
47765;DHT22;33529;49.242;8.670;2022-11-27T06:51:26;0.80;99.90
47765;DHT22;33529;49.242;8.670;2022-11-27T06:53:53;0.90;99.90
47765;DHT22;33529;49.242;8.670;2022-11-27T06:56:23;0.80;99.90
47765;DHT22;33529;49.242;8.670;2022-11-27T06:58:51;0.80;99.90
47765;DHT22;33529;49.242;8.670;2022-11-27T07:01:20;0.80;99.90
47765;DHT22;33529;49.242;8.670;2022-11-27T07:03:47;0.80;99.90
47765;DHT22;33529;49.242;8.670;2022-11-27T07:06:19;0.80;99.90
47765;DHT22;33529;49.242;8.670;2022-11-27T07:08:47;0.80;99.90
47765;DHT22;33529;49.242;8.670;2022-11-27T07:11:19;0.70;99.90
47765;DHT22;33529;49.242;8.670;2022-11-27T07:13:47;0.70;99.90
47765;DHT22;33529;49.242;8.670;2022-11-27T07:16:15;0.80;99.90
47765;DHT22;33529;49.242;8.670;2022-11-27T07:18:46;0.70;99.90
47765;DHT22;33529;49.242;8.670;2022-11-27T07:21:17;0.70;99.90
47765;DHT22;33529;49.242;8.670;2022-11-27T07:23:44;0.80;99.90
47765;DHT22;33529;49.242;8.670;2022-11-27T07:26:15;0.80;99.90
47765;DHT22;33529;49.242;8.670;2022-11-27T07:28:43;1.00;99.90
47765;DHT22;33529;49.242;8.670;2022-11-27T07:31:24;1.00;99.90
47765;DHT22;33529;49.242;8.670;2022-11-27T07:33:55;1.10;99.90
47765;DHT22;33529;49.242;8.670;2022-11-27T07:36:25;1.10;99.90
47765;DHT22;33529;49.242;8.670;2022-11-27T07:39:00;1.20;99.90
47765;DHT22;33529;49.242;8.670;2022-11-27T07:41:27;1.30;99.90
47765;DHT22;33529;49.242;8.670;2022-11-27T07:44:00;1.10;99.90
47765;DHT22;33529;49.242;8.670;2022-11-27T07:46:27;1.20;99.90
47765;DHT22;33529;49.242;8.670;2022-11-27T07:48:55;1.30;99.90
47765;DHT22;33529;49.242;8.670;2022-11-27T07:51:22;1.30;99.90
47765;DHT22;33529;49.242;8.670;2022-11-27T07:53:49;1.30;99.90
47765;DHT22;33529;49.242;8.670;2022-11-27T07:56:19;1.40;99.90
47765;DHT22;33529;49.242;8.670;2022-11-27T07:58:46;1.60;99.90
47765;DHT22;33529;49.242;8.670;2022-11-27T08:01:16;1.70;99.90
47765;DHT22;33529;49.242;8.670;2022-11-27T08:03:44;1.70;99.90
47765;DHT22;33529;49.242;8.670;2022-11-27T08:06:22;1.70;99.90
47765;DHT22;33529;49.242;8.670;2022-11-27T08:08:51;1.80;99.90
47765;DHT22;33529;49.242;8.670;2022-11-27T08:11:26;1.70;99.90
47765;DHT22;33529;49.242;8.670;2022-11-27T08:13:57;1.80;99.90
47765;DHT22;33529;49.242;8.670;2022-11-27T08:16:25;1.80;99.90
47765;DHT22;33529;49.242;8.670;2022-11-27T08:18:52;1.80;99.90
47765;DHT22;33529;49.242;8.670;2022-11-27T08:21:20;1.80;99.90
47765;DHT22;33529;49.242;8.670;2022-11-27T08:23:47;1.90;99.90
47765;DHT22;33529;49.242;8.670;2022-11-27T08:26:15;2.00;99.90
47765;DHT22;33529;49.242;8.670;2022-11-27T08:28:42;2.20;99.90
47765;DHT22;33529;49.242;8.670;2022-11-27T08:31:10;2.30;99.90
47765;DHT22;33529;49.242;8.670;2022-11-27T08:33:38;2.50;99.90
47765;DHT22;33529;49.242;8.670;2022-11-27T08:36:08;2.70;99.90
47765;DHT22;33529;49.242;8.670;2022-11-27T08:38:43;2.90;99.90
47765;DHT22;33529;49.242;8.670;2022-11-27T08:41:10;3.00;99.90
47765;DHT22;33529;49.242;8.670;2022-11-27T08:43:37;3.20;99.90
47765;DHT22;33529;49.242;8.670;2022-11-27T08:46:05;3.30;99.90
47765;DHT22;33529;49.242;8.670;2022-11-27T08:48:33;3.40;99.90
47765;DHT22;33529;49.242;8.670;2022-11-27T08:51:09;3.30;99.90
47765;DHT22;33529;49.242;8.670;2022-11-27T08:53:37;3.40;99.90
47765;DHT22;33529;49.242;8.670;2022-11-27T08:56:06;3.50;99.90
47765;DHT22;33529;49.242;8.670;2022-11-27T08:58:34;3.50;99.90
47765;DHT22;33529;49.242;8.670;2022-11-27T09:01:14;3.60;99.90
47765;DHT22;33529;49.242;8.670;2022-11-27T09:03:42;3.50;99.90
47765;DHT22;33529;49.242;8.670;2022-11-27T09:06:12;3.60;99.90
47765;DHT22;33529;49.242;8.670;2022-11-27T09:08:41;3.70;99.90
47765;DHT22;33529;49.242;8.670;2022-11-27T09:11:10;3.70;99.90
47765;DHT22;33529;49.242;8.670;2022-11-27T09:13:37;3.80;99.90
47765;DHT22;33529;49.242;8.670;2022-11-27T09:16:17;3.90;99.90
47765;DHT22;33529;49.242;8.670;2022-11-27T09:18:46;4.00;99.90
47765;DHT22;33529;49.242;8.670;2022-11-27T09:21:15;4.10;99.90
47765;DHT22;33529;49.242;8.670;2022-11-27T09:23:43;4.10;99.90
47765;DHT22;33529;49.242;8.670;2022-11-27T09:26:12;4.20;99.90
47765;DHT22;33529;49.242;8.670;2022-11-27T09:28:41;4.30;99.90
47765;DHT22;33529;49.242;8.670;2022-11-27T09:31:10;4.40;99.90
47765;DHT22;33529;49.242;8.670;2022-11-27T09:33:39;4.50;99.90
47765;DHT22;33529;49.242;8.670;2022-11-27T09:36:11;4.50;99.90
47765;DHT22;33529;49.242;8.670;2022-11-27T09:38:39;4.50;99.90
47765;DHT22;33529;49.242;8.670;2022-11-27T09:41:31;4.60;99.90
47765;DHT22;33529;49.242;8.670;2022-11-27T09:44:02;4.70;99.90
47765;DHT22;33529;49.242;8.670;2022-11-27T09:46:37;4.90;99.90
47765;DHT22;33529;49.242;8.670;2022-11-27T09:49:08;5.00;99.90
47765;DHT22;33529;49.242;8.670;2022-11-27T09:51:44;5.00;99.90
47765;DHT22;33529;49.242;8.670;2022-11-27T09:54:36;5.10;99.90
47765;DHT22;33529;49.242;8.670;2022-11-27T09:57:04;5.20;99.90
47765;DHT22;33529;49.242;8.670;2022-11-27T09:59:40;5.40;99.90
47765;DHT22;33529;49.242;8.670;2022-11-27T10:02:15;5.50;99.90
47765;DHT22;33529;49.242;8.670;2022-11-27T10:04:44;5.50;99.90
47765;DHT22;33529;49.242;8.670;2022-11-27T10:11:04;5.70;99.90
47765;DHT22;33529;49.242;8.670;2022-11-27T10:13:54;5.80;99.90
47765;DHT22;33529;49.242;8.670;2022-11-27T10:21:55;6.10;99.90
47765;DHT22;33529;49.242;8.670;2022-11-27T10:26:57;6.30;99.90
47765;DHT22;33529;49.242;8.670;2022-11-27T10:29:28;6.50;99.90
47765;DHT22;33529;49.242;8.670;2022-11-27T10:32:12;6.60;99.90
47765;DHT22;33529;49.242;8.670;2022-11-27T10:35:08;6.60;99.90
47765;DHT22;33529;49.242;8.670;2022-11-27T10:37:51;6.70;99.90
47765;DHT22;33529;49.242;8.670;2022-11-27T10:40:25;6.60;99.90
47765;DHT22;33529;49.242;8.670;2022-11-27T10:43:12;6.80;99.90
47765;DHT22;33529;49.242;8.670;2022-11-27T10:48:12;6.80;99.90
47765;DHT22;33529;49.242;8.670;2022-11-27T10:50:40;6.80;99.90
47765;DHT22;33529;49.242;8.670;2022-11-27T10:58:54;7.00;99.90
47765;DHT22;33529;49.242;8.670;2022-11-27T11:01:23;6.90;99.90
47765;DHT22;33529;49.242;8.670;2022-11-27T11:04:07;7.00;99.90
47765;DHT22;33529;49.242;8.670;2022-11-27T11:06:55;7.00;99.90
47765;DHT22;33529;49.242;8.670;2022-11-27T11:09:30;7.00;99.90
47765;DHT22;33529;49.242;8.670;2022-11-27T11:12:11;6.90;99.90
47765;DHT22;33529;49.242;8.670;2022-11-27T11:14:51;6.90;99.90
47765;DHT22;33529;49.242;8.670;2022-11-27T11:17:30;6.90;99.90
47765;DHT22;33529;49.242;8.670;2022-11-27T11:20:20;6.90;99.90
47765;DHT22;33529;49.242;8.670;2022-11-27T11:22:48;6.90;99.90
47765;DHT22;33529;49.242;8.670;2022-11-27T11:25:20;7.00;99.90
47765;DHT22;33529;49.242;8.670;2022-11-27T11:27:48;7.10;99.90
47765;DHT22;33529;49.242;8.670;2022-11-27T11:30:24;7.20;99.90
47765;DHT22;33529;49.242;8.670;2022-11-27T11:32:58;7.20;99.90
47765;DHT22;33529;49.242;8.670;2022-11-27T11:35:33;7.20;99.90
47765;DHT22;33529;49.242;8.670;2022-11-27T11:38:04;7.30;99.90
47765;DHT22;33529;49.242;8.670;2022-11-27T11:40:33;7.40;99.90
47765;DHT22;33529;49.242;8.670;2022-11-27T11:43:06;7.40;99.90
47765;DHT22;33529;49.242;8.670;2022-11-27T11:45:46;7.40;99.90
47765;DHT22;33529;49.242;8.670;2022-11-27T11:48:25;7.50;99.90
47765;DHT22;33529;49.242;8.670;2022-11-27T11:51:01;7.50;99.90
47765;DHT22;33529;49.242;8.670;2022-11-27T11:53:35;7.60;99.90
47765;DHT22;33529;49.242;8.670;2022-11-27T11:56:31;7.70;99.90
47765;DHT22;33529;49.242;8.670;2022-11-27T11:59:20;7.80;99.90
47765;DHT22;33529;49.242;8.670;2022-11-27T12:01:52;7.70;99.90
47765;DHT22;33529;49.242;8.670;2022-11-27T12:10:30;7.90;99.90
47765;DHT22;33529;49.242;8.670;2022-11-27T12:16:40;8.10;99.90
47765;DHT22;33529;49.242;8.670;2022-11-27T12:27:36;8.20;99.90
47765;DHT22;33529;49.242;8.670;2022-11-27T12:30:20;8.20;99.90
47765;DHT22;33529;49.242;8.670;2022-11-27T12:35:36;8.10;99.90
47765;DHT22;33529;49.242;8.670;2022-11-27T12:38:24;8.10;99.90
47765;DHT22;33529;49.242;8.670;2022-11-27T12:41:21;8.00;99.90
47765;DHT22;33529;49.242;8.670;2022-11-27T12:43:52;7.90;99.90
47765;DHT22;33529;49.242;8.670;2022-11-27T12:47:10;8.00;99.90
47765;DHT22;33529;49.242;8.670;2022-11-27T12:49:47;8.00;99.90
47765;DHT22;33529;49.242;8.670;2022-11-27T12:52:19;8.10;99.90
47765;DHT22;33529;49.242;8.670;2022-11-27T12:57:43;8.30;99.90
47765;DHT22;33529;49.242;8.670;2022-11-27T13:00:18;8.40;99.90
47765;DHT22;33529;49.242;8.670;2022-11-27T13:03:05;8.40;99.90
47765;DHT22;33529;49.242;8.670;2022-11-27T13:05:52;8.60;99.90
47765;DHT22;33529;49.242;8.670;2022-11-27T13:08:41;8.70;99.90
47765;DHT22;33529;49.242;8.670;2022-11-27T13:11:19;8.70;99.90
47765;DHT22;33529;49.242;8.670;2022-11-27T13:14:11;8.60;99.90
47765;DHT22;33529;49.242;8.670;2022-11-27T13:16:42;8.70;99.90
47765;DHT22;33529;49.242;8.670;2022-11-27T13:21:52;8.60;99.90
47765;DHT22;33529;49.242;8.670;2022-11-27T13:24:20;8.60;99.90
47765;DHT22;33529;49.242;8.670;2022-11-27T13:29:30;8.70;99.90
47765;DHT22;33529;49.242;8.670;2022-11-27T13:32:00;8.70;99.90
47765;DHT22;33529;49.242;8.670;2022-11-27T13:34:29;8.70;99.90
47765;DHT22;33529;49.242;8.670;2022-11-27T13:37:01;8.70;99.90
47765;DHT22;33529;49.242;8.670;2022-11-27T13:39:34;8.70;99.90
47765;DHT22;33529;49.242;8.670;2022-11-27T13:42:16;8.70;99.90
47765;DHT22;33529;49.242;8.670;2022-11-27T13:44:51;8.80;99.90
47765;DHT22;33529;49.242;8.670;2022-11-27T13:47:21;8.70;99.90
47765;DHT22;33529;49.242;8.670;2022-11-27T13:50:17;8.80;99.90
47765;DHT22;33529;49.242;8.670;2022-11-27T13:53:02;8.70;99.90
47765;DHT22;33529;49.242;8.670;2022-11-27T13:55:35;8.80;99.90
47765;DHT22;33529;49.242;8.670;2022-11-27T13:58:04;8.70;99.90
47765;DHT22;33529;49.242;8.670;2022-11-27T14:00:42;8.50;99.90
47765;DHT22;33529;49.242;8.670;2022-11-27T14:03:27;8.40;99.90
47765;DHT22;33529;49.242;8.670;2022-11-27T14:05:55;8.20;99.90
47765;DHT22;33529;49.242;8.670;2022-11-27T14:08:26;8.10;99.90
47765;DHT22;33529;49.242;8.670;2022-11-27T14:11:26;8.10;99.90
47765;DHT22;33529;49.242;8.670;2022-11-27T14:13:53;8.00;99.90
47765;DHT22;33529;49.242;8.670;2022-11-27T14:16:34;7.90;99.90
47765;DHT22;33529;49.242;8.670;2022-11-27T14:19:04;7.90;99.90
47765;DHT22;33529;49.242;8.670;2022-11-27T14:21:38;7.70;99.90
47765;DHT22;33529;49.242;8.670;2022-11-27T14:24:37;7.70;99.90
47765;DHT22;33529;49.242;8.670;2022-11-27T14:27:20;7.60;99.90
47765;DHT22;33529;49.242;8.670;2022-11-27T14:29:50;7.60;99.90
47765;DHT22;33529;49.242;8.670;2022-11-27T14:32:19;7.50;99.90
47765;DHT22;33529;49.242;8.670;2022-11-27T14:34:47;7.50;99.90
47765;DHT22;33529;49.242;8.670;2022-11-27T14:37:25;7.40;99.90
47765;DHT22;33529;49.242;8.670;2022-11-27T14:39:55;7.30;99.90
47765;DHT22;33529;49.242;8.670;2022-11-27T14:42:26;7.30;99.90
47765;DHT22;33529;49.242;8.670;2022-11-27T14:45:06;7.30;99.90
47765;DHT22;33529;49.242;8.670;2022-11-27T14:47:34;7.30;99.90
47765;DHT22;33529;49.242;8.670;2022-11-27T14:50:01;7.30;99.90
47765;DHT22;33529;49.242;8.670;2022-11-27T14:52:29;7.20;99.90
47765;DHT22;33529;49.242;8.670;2022-11-27T14:54:57;7.10;99.90
47765;DHT22;33529;49.242;8.670;2022-11-27T14:57:27;7.00;99.90
47765;DHT22;33529;49.242;8.670;2022-11-27T15:00:24;6.90;99.90
47765;DHT22;33529;49.242;8.670;2022-11-27T15:03:06;6.90;99.90
47765;DHT22;33529;49.242;8.670;2022-11-27T15:05:35;6.90;99.90
47765;DHT22;33529;49.242;8.670;2022-11-27T15:08:07;6.90;99.90
47765;DHT22;33529;49.242;8.670;2022-11-27T15:10:37;6.80;99.90
47765;DHT22;33529;49.242;8.670;2022-11-27T15:13:06;6.70;99.90
47765;DHT22;33529;49.242;8.670;2022-11-27T15:16:02;6.60;99.90
47765;DHT22;33529;49.242;8.670;2022-11-27T15:18:34;6.50;99.90
47765;DHT22;33529;49.242;8.670;2022-11-27T15:21:08;6.50;99.90
47765;DHT22;33529;49.242;8.670;2022-11-27T15:23:36;6.50;99.90
47765;DHT22;33529;49.242;8.670;2022-11-27T15:26:10;6.40;99.90
47765;DHT22;33529;49.242;8.670;2022-11-27T15:28:52;6.30;99.90
47765;DHT22;33529;49.242;8.670;2022-11-27T15:36:36;6.00;99.90
47765;DHT22;33529;49.242;8.670;2022-11-27T15:41:59;6.10;99.90
47765;DHT22;33529;49.242;8.670;2022-11-27T15:44:29;6.00;99.90
47765;DHT22;33529;49.242;8.670;2022-11-27T15:46:58;6.00;99.90
47765;DHT22;33529;49.242;8.670;2022-11-27T15:49:26;6.10;99.90
47765;DHT22;33529;49.242;8.670;2022-11-27T15:51:54;6.10;99.90
47765;DHT22;33529;49.242;8.670;2022-11-27T15:54:21;6.00;99.90
47765;DHT22;33529;49.242;8.670;2022-11-27T15:56:48;6.00;99.90
47765;DHT22;33529;49.242;8.670;2022-11-27T15:59:15;6.10;99.90
47765;DHT22;33529;49.242;8.670;2022-11-27T16:01:43;6.10;99.90
47765;DHT22;33529;49.242;8.670;2022-11-27T16:04:10;6.10;99.90
47765;DHT22;33529;49.242;8.670;2022-11-27T16:06:37;6.00;99.90
47765;DHT22;33529;49.242;8.670;2022-11-27T16:09:05;6.00;99.90
47765;DHT22;33529;49.242;8.670;2022-11-27T16:11:32;5.90;99.90
47765;DHT22;33529;49.242;8.670;2022-11-27T16:13:59;5.90;99.90
47765;DHT22;33529;49.242;8.670;2022-11-27T16:16:26;6.00;99.90
47765;DHT22;33529;49.242;8.670;2022-11-27T16:19:00;6.00;99.90
47765;DHT22;33529;49.242;8.670;2022-11-27T16:21:28;6.00;99.90
47765;DHT22;33529;49.242;8.670;2022-11-27T16:24:00;6.10;99.90
47765;DHT22;33529;49.242;8.670;2022-11-27T16:26:28;6.00;99.90
47765;DHT22;33529;49.242;8.670;2022-11-27T16:28:55;6.00;99.90
47765;DHT22;33529;49.242;8.670;2022-11-27T16:31:23;6.10;99.90
47765;DHT22;33529;49.242;8.670;2022-11-27T16:33:50;6.10;99.90
47765;DHT22;33529;49.242;8.670;2022-11-27T16:36:20;6.00;99.90
47765;DHT22;33529;49.242;8.670;2022-11-27T16:38:48;6.00;99.90
47765;DHT22;33529;49.242;8.670;2022-11-27T16:41:17;5.90;99.90
47765;DHT22;33529;49.242;8.670;2022-11-27T16:43:48;5.90;99.90
47765;DHT22;33529;49.242;8.670;2022-11-27T16:46:28;5.90;99.90
47765;DHT22;33529;49.242;8.670;2022-11-27T16:48:57;5.80;99.90
47765;DHT22;33529;49.242;8.670;2022-11-27T16:51:29;5.70;99.90
47765;DHT22;33529;49.242;8.670;2022-11-27T16:53:59;5.80;99.90
47765;DHT22;33529;49.242;8.670;2022-11-27T16:56:28;5.80;99.90
47765;DHT22;33529;49.242;8.670;2022-11-27T16:58:56;5.80;99.90
47765;DHT22;33529;49.242;8.670;2022-11-27T17:01:31;5.80;99.90
47765;DHT22;33529;49.242;8.670;2022-11-27T17:04:02;5.80;99.90
47765;DHT22;33529;49.242;8.670;2022-11-27T17:06:31;5.80;99.90
47765;DHT22;33529;49.242;8.670;2022-11-27T17:09:00;5.70;99.90
47765;DHT22;33529;49.242;8.670;2022-11-27T17:11:29;5.60;99.90
47765;DHT22;33529;49.242;8.670;2022-11-27T17:14:02;5.60;99.90
47765;DHT22;33529;49.242;8.670;2022-11-27T17:16:31;5.60;99.90
47765;DHT22;33529;49.242;8.670;2022-11-27T17:18:58;5.50;99.90
47765;DHT22;33529;49.242;8.670;2022-11-27T17:21:28;5.50;99.90
47765;DHT22;33529;49.242;8.670;2022-11-27T17:23:57;5.50;99.90
47765;DHT22;33529;49.242;8.670;2022-11-27T17:26:26;5.60;99.90
47765;DHT22;33529;49.242;8.670;2022-11-27T17:28:54;5.60;99.90
47765;DHT22;33529;49.242;8.670;2022-11-27T17:31:26;5.60;99.90
47765;DHT22;33529;49.242;8.670;2022-11-27T17:33:55;5.60;99.90
47765;DHT22;33529;49.242;8.670;2022-11-27T17:36:26;5.60;99.90
47765;DHT22;33529;49.242;8.670;2022-11-27T17:38:55;5.50;99.90